Time;durP1;ratioP1;P1;durP2;ratioP2;P2;SDS_P1;SDS_P2;PMS_P1;PMS_P2;Temp;Humidity;BMP_temperature;BMP_pressure;BME280_temperature;BME280_humidity;BME280_pressure;Samples;Min_cycle;Max_cycle;Signal;HPM_P1;HPM_P2
2023/10/02 00:01:47;;;;;;;15.77;9.07;;;17.40;99.90;;;;;;4966402;28;21092;-74
2023/10/02 00:04:18;;;;;;;13.83;6.50;;;17.40;99.90;;;;;;4965535;28;21146;-74
2023/10/02 00:06:46;;;;;;;14.53;6.53;;;17.40;99.90;;;;;;4964755;28;20457;-75
2023/10/02 00:09:13;;;;;;;10.27;5.97;;;17.30;99.90;;;;;;4967011;28;20469;-75
2023/10/02 00:11:39;;;;;;;9.23;6.10;;;17.30;99.90;;;;;;4964613;28;20481;-76
2023/10/02 00:14:19;;;;;;;13.20;6.17;;;17.30;99.90;;;;;;4965537;28;21219;-75
2023/10/02 00:17:03;;;;;;;12.40;6.93;;;17.30;99.90;;;;;;4965113;28;20481;-73
2023/10/02 00:19:41;;;;;;;13.27;6.47;;;17.20;99.90;;;;;;4965502;28;20473;-75
2023/10/02 00:22:06;;;;;;;10.13;5.90;;;17.20;99.90;;;;;;4948999;28;20480;-75
2023/10/02 00:24:40;;;;;;;13.63;6.07;;;17.20;99.90;;;;;;4974146;28;20597;-75
2023/10/02 00:27:10;;;;;;;12.27;6.20;;;17.10;99.90;;;;;;4967960;28;20232;-75
2023/10/02 00:29:52;;;;;;;9.70;5.70;;;17.10;99.90;;;;;;4963998;28;21066;-75
2023/10/02 00:32:19;;;;;;;10.10;5.97;;;17.10;99.90;;;;;;4958523;28;20515;-75
2023/10/02 00:34:46;;;;;;;10.23;6.00;;;17.10;99.90;;;;;;4964004;28;20469;-74
2023/10/02 00:37:12;;;;;;;12.07;5.47;;;17.00;99.90;;;;;;4966363;28;20481;-75
2023/10/02 00:39:47;;;;;;;11.53;6.40;;;17.00;99.90;;;;;;4964811;28;20484;-76
2023/10/02 00:42:24;;;;;;;9.10;5.93;;;17.00;99.90;;;;;;4958862;28;20295;-72
2023/10/02 00:44:52;;;;;;;10.10;5.47;;;16.70;99.90;;;;;;4957654;28;20870;-75
2023/10/02 00:47:40;;;;;;;11.57;6.10;;;16.70;99.90;;;;;;4959476;28;20642;-74
2023/10/02 00:50:08;;;;;;;9.67;5.70;;;16.80;99.90;;;;;;4966392;28;20477;-75
2023/10/02 00:52:36;;;;;;;11.03;6.17;;;16.80;99.90;;;;;;4973306;28;20544;-74
2023/10/02 00:55:06;;;;;;;9.30;5.57;;;16.80;99.90;;;;;;4963243;28;20481;-73
2023/10/02 00:57:38;;;;;;;8.53;5.53;;;16.60;99.90;;;;;;4964120;28;20464;-75
2023/10/02 01:00:20;;;;;;;13.00;5.43;;;16.70;99.90;;;;;;4981874;28;21006;-74
2023/10/02 01:02:57;;;;;;;11.27;5.70;;;16.70;99.90;;;;;;4961548;28;20461;-74
2023/10/02 01:05:41;;;;;;;9.40;5.27;;;16.80;99.90;;;;;;4966149;28;20568;-73
2023/10/02 01:08:25;;;;;;;8.90;5.27;;;16.80;99.90;;;;;;4952754;28;20472;-75
2023/10/02 01:10:56;;;;;;;8.80;5.40;;;16.80;99.90;;;;;;4965104;28;20475;-74
2023/10/02 01:13:34;;;;;;;13.47;5.93;;;16.70;99.90;;;;;;4965256;28;20480;-74
2023/10/02 01:16:04;;;;;;;13.33;6.33;;;16.70;99.90;;;;;;4949813;28;20496;-75
2023/10/02 01:18:31;;;;;;;12.40;6.47;;;16.60;99.90;;;;;;4982051;28;20477;-75
2023/10/02 01:21:09;;;;;;;9.17;5.77;;;16.70;99.90;;;;;;4975563;28;20461;-73
2023/10/02 01:23:44;;;;;;;12.97;7.33;;;16.70;99.90;;;;;;4952731;28;20468;-76
2023/10/02 01:26:10;;;;;;;10.67;5.90;;;16.70;99.90;;;;;;4963485;28;20468;-75
2023/10/02 01:28:49;;;;;;;13.93;6.47;;;16.70;99.90;;;;;;4974062;28;20599;-75
2023/10/02 01:31:32;;;;;;;8.93;5.30;;;16.60;99.90;;;;;;4958225;28;20588;-76
2023/10/02 01:34:02;;;;;;;11.80;6.37;;;16.60;99.90;;;;;;4962502;28;20592;-75
2023/10/02 01:36:32;;;;;;;8.03;6.13;;;16.60;99.90;;;;;;4960413;28;20532;-75
2023/10/02 01:39:15;;;;;;;12.27;6.27;;;16.60;99.90;;;;;;4963842;28;20465;-76
2023/10/02 01:41:52;;;;;;;10.20;6.00;;;16.60;99.90;;;;;;4962385;28;20510;-73
2023/10/02 01:44:22;;;;;;;8.30;5.67;;;16.50;99.90;;;;;;4964756;28;20495;-74
2023/10/02 01:46:52;;;;;;;15.23;5.57;;;16.50;99.90;;;;;;4962014;28;20576;-77
2023/10/02 01:49:25;;;;;;;9.50;5.30;;;16.50;99.90;;;;;;4964580;28;20592;-76
2023/10/02 01:52:02;;;;;;;15.00;6.47;;;16.50;99.90;;;;;;4951316;28;20508;-74
2023/10/02 01:54:31;;;;;;;10.67;6.00;;;16.40;99.90;;;;;;4961107;28;20473;-76
2023/10/02 01:56:59;;;;;;;8.77;5.20;;;16.40;99.90;;;;;;4963894;28;20475;-73
2023/10/02 01:59:26;;;;;;;13.77;6.50;;;16.40;99.90;;;;;;4964478;28;20472;-73
2023/10/02 02:01:57;;;;;;;11.90;6.23;;;16.40;99.90;;;;;;4972048;28;20464;-75
2023/10/02 02:04:28;;;;;;;11.97;6.07;;;16.30;99.90;;;;;;4962743;28;20476;-75
2023/10/02 02:06:56;;;;;;;11.97;6.00;;;16.30;99.90;;;;;;4955953;28;21057;-74
2023/10/02 02:09:26;;;;;;;15.13;6.53;;;16.30;99.90;;;;;;4965473;28;20496;-73
2023/10/02 02:12:05;;;;;;;9.67;5.77;;;16.20;99.90;;;;;;4964467;28;20472;-74
2023/10/02 02:14:49;;;;;;;9.80;5.53;;;16.20;99.90;;;;;;4950069;28;21009;-75
2023/10/02 02:17:20;;;;;;;14.57;5.20;;;16.20;99.90;;;;;;4964722;28;20575;-74
2023/10/02 02:19:50;;;;;;;10.87;6.77;;;16.30;99.90;;;;;;4962747;28;20472;-75
2023/10/02 02:22:26;;;;;;;10.07;6.10;;;16.30;99.90;;;;;;4973994;28;20480;-73
2023/10/02 02:24:55;;;;;;;9.10;5.40;;;16.20;99.90;;;;;;4961853;28;20482;-74
2023/10/02 02:27:20;;;;;;;12.60;6.37;;;16.20;99.90;;;;;;4973194;28;20473;-75
2023/10/02 02:29:53;;;;;;;9.10;5.50;;;16.20;99.90;;;;;;4961515;28;20528;-74
2023/10/02 02:32:19;;;;;;;11.90;5.73;;;16.10;99.90;;;;;;4963864;28;20231;-75
2023/10/02 02:35:00;;;;;;;10.10;5.80;;;16.10;99.90;;;;;;4955984;28;20882;-76
2023/10/02 02:37:28;;;;;;;12.80;5.37;;;16.10;99.90;;;;;;4962753;28;20317;-74
2023/10/02 02:40:21;;;;;;;14.20;5.90;;;16.10;99.90;;;;;;4961684;28;20486;-73
2023/10/02 02:42:41;;;;;;;13.00;6.07;;;16.10;99.90;;;;;;4963662;28;20472;-75
2023/10/02 02:45:24;;;;;;;6.70;5.00;;;16.10;99.90;;;;;;4965705;28;20461;-74
2023/10/02 02:47:54;;;;;;;12.57;6.30;;;16.10;99.90;;;;;;4958367;28;21057;-74
2023/10/02 02:50:32;;;;;;;14.23;6.03;;;16.00;99.90;;;;;;4958580;28;20949;-73
2023/10/02 02:55:57;;;;;;;10.53;6.30;;;16.00;99.90;;;;;;4964289;28;21158;-75
2023/10/02 02:58:25;;;;;;;11.60;5.67;;;15.90;99.90;;;;;;4968084;28;20953;-73
2023/10/02 03:00:53;;;;;;;8.40;5.20;;;15.80;99.90;;;;;;4964738;28;20575;-74
2023/10/02 03:03:33;;;;;;;9.77;5.30;;;15.80;99.90;;;;;;4966395;28;20592;-75
2023/10/02 03:05:58;;;;;;;14.00;6.23;;;15.80;99.90;;;;;;4965564;28;21085;-74
2023/10/02 03:08:37;;;;;;;11.37;6.33;;;15.90;99.90;;;;;;4967011;28;20557;-74
2023/10/02 03:11:06;;;;;;;10.60;5.80;;;15.90;99.90;;;;;;4967804;28;20248;-74
2023/10/02 03:13:34;;;;;;;10.67;5.23;;;15.90;99.90;;;;;;4965952;28;20591;-75
2023/10/02 03:16:08;;;;;;;9.97;6.43;;;15.90;99.90;;;;;;4964577;28;20562;-74
2023/10/02 03:18:36;;;;;;;9.20;5.30;;;15.90;99.90;;;;;;4958476;28;20515;-75
2023/10/02 03:23:33;;;;;;;13.10;5.63;;;15.80;99.90;;;;;;4967185;28;20474;-76
2023/10/02 03:25:59;;;;;;;12.50;5.63;;;15.80;99.90;;;;;;4964373;28;20471;-74
2023/10/02 03:28:28;;;;;;;13.83;7.10;;;15.80;99.90;;;;;;4982703;28;20587;-74
2023/10/02 03:31:03;;;;;;;10.33;6.20;;;15.90;99.90;;;;;;4964519;28;20319;-75
2023/10/02 03:33:32;;;;;;;12.70;6.13;;;15.80;99.90;;;;;;4966866;28;20472;-74
2023/10/02 03:36:08;;;;;;;9.73;5.50;;;15.80;99.90;;;;;;4964195;28;20480;-73
2023/10/02 03:38:41;;;;;;;9.70;5.10;;;15.80;99.90;;;;;;4975768;28;20476;-75
2023/10/02 03:41:08;;;;;;;9.20;5.63;;;15.80;99.90;;;;;;4951408;28;20482;-76
2023/10/02 03:43:34;;;;;;;10.73;5.87;;;15.70;99.90;;;;;;4964504;28;20556;-74
2023/10/02 03:46:04;;;;;;;11.30;5.90;;;15.70;99.90;;;;;;4965962;28;20593;-74
2023/10/02 03:48:32;;;;;;;11.80;6.10;;;15.70;99.90;;;;;;4981292;28;20728;-73
2023/10/02 03:50:59;;;;;;;12.93;6.17;;;15.70;99.90;;;;;;4952415;28;21155;-73
2023/10/02 03:53:28;;;;;;;13.23;5.83;;;15.70;99.90;;;;;;4962781;28;20553;-75
2023/10/02 03:58:52;;;;;;;13.43;6.63;;;15.40;99.90;;;;;;4964682;28;20466;-74
2023/10/02 04:01:31;;;;;;;15.00;6.27;;;15.40;99.90;;;;;;4981934;28;20835;-75
2023/10/02 04:06:42;;;;;;;10.53;6.30;;;15.50;99.90;;;;;;4971999;28;20498;-75
2023/10/02 04:09:28;;;;;;;14.90;7.30;;;15.50;99.90;;;;;;4968076;28;20888;-74
2023/10/02 04:11:55;;;;;;;14.70;6.87;;;15.50;99.90;;;;;;4964902;28;20465;-74
2023/10/02 04:14:31;;;;;;;11.00;6.50;;;15.50;99.90;;;;;;4964737;28;20527;-75
2023/10/02 04:19:35;;;;;;;12.47;6.40;;;15.40;99.90;;;;;;4965807;28;21163;-73
2023/10/02 04:22:06;;;;;;;10.57;5.80;;;15.40;99.90;;;;;;4965205;28;20567;-74
2023/10/02 04:24:50;;;;;;;15.53;5.80;;;15.40;99.90;;;;;;4947662;28;20554;-75
2023/10/02 04:27:18;;;;;;;10.73;5.93;;;15.40;99.90;;;;;;4958424;28;20599;-74
2023/10/02 04:30:18;;;;;;;14.03;6.40;;;15.30;99.90;;;;;;4958087;28;20626;-74
2023/10/02 04:32:32;;;;;;;11.90;6.07;;;15.30;99.90;;;;;;4963970;28;20477;-74
2023/10/02 04:34:58;;;;;;;10.70;5.63;;;15.30;99.90;;;;;;4965803;28;20495;-74
2023/10/02 04:37:24;;;;;;;12.60;6.90;;;15.30;99.90;;;;;;4964421;28;21143;-75
2023/10/02 04:39:52;;;;;;;12.70;6.17;;;15.20;99.90;;;;;;4964586;28;20473;-73
2023/10/02 04:45:20;;;;;;;10.77;5.67;;;15.20;99.90;;;;;;4972976;28;20516;-74
2023/10/02 04:47:48;;;;;;;9.27;6.70;;;15.20;99.90;;;;;;4965322;28;20461;-74
2023/10/02 04:55:25;;;;;;;104.97;56.33;;;15.20;99.90;;;;;;4962201;28;20229;-74
2023/10/02 04:57:54;;;;;;;371.67;191.80;;;15.20;99.90;;;;;;4955874;28;20466;-73
2023/10/02 05:00:35;;;;;;;612.47;354.47;;;15.20;99.90;;;;;;4942780;28;20485;-74
2023/10/02 05:03:24;;;;;;;667.77;388.97;;;15.20;99.90;;;;;;4961896;28;20640;-74
2023/10/02 05:05:53;;;;;;;612.07;355.90;;;15.20;99.90;;;;;;4960080;28;20654;-72
2023/10/02 05:11:07;;;;;;;227.50;120.83;;;15.20;99.90;;;;;;4961723;28;20502;-74
2023/10/02 05:16:33;;;;;;;71.83;39.50;;;15.10;99.90;;;;;;4963333;28;21184;-74
2023/10/02 05:19:01;;;;;;;48.70;24.43;;;15.10;99.90;;;;;;4963295;28;20562;-74
2023/10/02 05:21:36;;;;;;;33.60;18.20;;;15.10;99.90;;;;;;4942499;28;20469;-75
2023/10/02 05:24:07;;;;;;;30.13;15.60;;;15.10;99.90;;;;;;4959328;28;20485;-73
2023/10/02 05:26:34;;;;;;;29.10;14.53;;;15.00;99.90;;;;;;4961910;28;20527;-74
2023/10/02 05:29:07;;;;;;;23.10;10.67;;;15.00;99.90;;;;;;4964248;28;20498;-74
2023/10/02 05:31:36;;;;;;;17.47;9.87;;;15.00;99.90;;;;;;4950186;28;20488;-73
2023/10/02 05:34:25;;;;;;;14.57;8.87;;;15.00;99.90;;;;;;4963842;28;20547;-73
2023/10/02 05:37:10;;;;;;;16.90;7.67;;;15.00;99.90;;;;;;4963105;28;20485;-74
2023/10/02 05:39:41;;;;;;;13.20;7.00;;;14.90;99.90;;;;;;4963344;28;20507;-75
2023/10/02 05:42:14;;;;;;;14.70;7.50;;;14.90;99.90;;;;;;4966022;28;20471;-73
2023/10/02 05:44:44;;;;;;;18.03;7.80;;;14.90;99.90;;;;;;4961450;28;20468;-75
2023/10/02 05:47:15;;;;;;;11.83;6.97;;;14.90;99.90;;;;;;4963993;28;20473;-75
2023/10/02 05:49:47;;;;;;;13.73;6.90;;;14.90;99.90;;;;;;4956365;28;20465;-73
2023/10/02 05:52:20;;;;;;;10.67;6.37;;;14.80;99.90;;;;;;4963027;28;20477;-74
2023/10/02 05:54:47;;;;;;;11.10;6.60;;;14.80;99.90;;;;;;4963948;28;20534;-73
2023/10/02 05:57:16;;;;;;;15.60;6.23;;;14.80;99.90;;;;;;4966074;28;20473;-74
2023/10/02 05:59:44;;;;;;;13.57;7.50;;;14.80;99.90;;;;;;4963806;28;20461;-73
2023/10/02 06:02:23;;;;;;;15.40;7.97;;;14.80;99.90;;;;;;4945315;28;20511;-74
2023/10/02 06:05:04;;;;;;;12.93;6.37;;;14.70;99.90;;;;;;4964165;28;20460;-73
2023/10/02 06:07:46;;;;;;;10.50;5.90;;;14.80;99.90;;;;;;4961705;28;20472;-74
2023/10/02 06:10:27;;;;;;;13.30;6.67;;;14.80;99.90;;;;;;4963444;28;21335;-73
2023/10/02 06:13:03;;;;;;;11.57;6.10;;;14.80;99.90;;;;;;4946636;28;20469;-74
2023/10/02 06:15:46;;;;;;;15.57;7.40;;;14.80;99.90;;;;;;4961098;28;20479;-73
2023/10/02 06:18:24;;;;;;;11.53;6.30;;;14.70;99.90;;;;;;4965551;28;20469;-73
2023/10/02 06:21:03;;;;;;;12.27;6.27;;;14.80;99.90;;;;;;4961943;28;20508;-74
2023/10/02 06:23:37;;;;;;;17.37;6.70;;;14.80;99.90;;;;;;4949743;28;20987;-74
2023/10/02 06:26:09;;;;;;;11.97;5.97;;;14.80;99.90;;;;;;4962358;28;20608;-74
2023/10/02 06:28:36;;;;;;;13.33;6.87;;;14.80;99.90;;;;;;4964505;28;20460;-74
2023/10/02 06:31:06;;;;;;;12.37;6.20;;;14.80;99.90;;;;;;4962614;28;21117;-74
2023/10/02 06:33:36;;;;;;;13.57;6.43;;;14.80;99.90;;;;;;4963953;28;20538;-73
2023/10/02 06:36:07;;;;;;;14.23;7.00;;;14.80;99.90;;;;;;4970681;28;20480;-74
2023/10/02 06:38:33;;;;;;;15.20;6.80;;;14.80;99.90;;;;;;4978341;28;20597;-74
2023/10/02 06:41:06;;;;;;;18.90;7.13;;;14.80;99.90;;;;;;4963743;28;20468;-74
2023/10/02 06:43:32;;;;;;;13.60;6.27;;;14.80;99.90;;;;;;4964319;28;20214;-73
2023/10/02 06:46:06;;;;;;;9.47;6.20;;;14.90;99.90;;;;;;4960411;28;21273;-73
2023/10/02 06:48:45;;;;;;;12.57;6.17;;;14.90;99.90;;;;;;4965972;28;20476;-75
2023/10/02 06:51:15;;;;;;;15.33;7.43;;;14.90;99.90;;;;;;4964258;28;21078;-75
2023/10/02 06:53:43;;;;;;;15.57;8.07;;;14.90;99.90;;;;;;4963977;28;20461;-74
2023/10/02 06:56:13;;;;;;;13.80;6.60;;;15.00;99.90;;;;;;4971702;28;20603;-74
2023/10/02 06:58:56;;;;;;;12.77;6.37;;;15.00;99.90;;;;;;4962067;28;20639;-74
2023/10/02 07:01:27;;;;;;;7.20;5.50;;;15.00;99.90;;;;;;4962959;28;20471;-74
2023/10/02 07:03:55;;;;;;;13.50;7.10;;;15.00;99.90;;;;;;4964902;28;20462;-74
2023/10/02 07:06:26;;;;;;;11.40;6.77;;;15.10;99.90;;;;;;4949428;28;20469;-74
2023/10/02 07:09:10;;;;;;;12.97;6.77;;;15.10;99.90;;;;;;4964839;28;20474;-74
2023/10/02 07:11:42;;;;;;;12.73;5.50;;;15.20;99.90;;;;;;4962730;28;20464;-74
2023/10/02 07:14:10;;;;;;;11.07;6.27;;;15.20;99.90;;;;;;4963580;28;20628;-74
2023/10/02 07:16:37;;;;;;;13.40;6.57;;;15.20;99.90;;;;;;4945045;28;20484;-74
2023/10/02 07:19:04;;;;;;;13.30;7.27;;;15.30;99.90;;;;;;4961827;28;20464;-74
2023/10/02 07:21:31;;;;;;;11.27;6.60;;;15.30;99.90;;;;;;4962027;28;20520;-74
2023/10/02 07:24:03;;;;;;;9.93;6.10;;;15.30;99.90;;;;;;4963531;28;20493;-73
2023/10/02 07:29:16;;;;;;;10.63;6.30;;;15.40;99.90;;;;;;4967133;28;20540;-74
2023/10/02 07:31:44;;;;;;;10.63;6.70;;;15.50;99.90;;;;;;4974949;28;21151;-75
2023/10/02 07:34:11;;;;;;;11.43;6.30;;;15.50;99.90;;;;;;4967371;28;20550;-74
2023/10/02 07:36:44;;;;;;;9.63;5.47;;;15.50;99.90;;;;;;4981535;28;20477;-74
2023/10/02 07:39:35;;;;;;;12.17;7.03;;;15.50;99.90;;;;;;4966944;28;20514;-73
2023/10/02 07:42:01;;;;;;;11.63;6.83;;;15.60;99.90;;;;;;4957573;28;21081;-73
2023/10/02 07:44:39;;;;;;;12.10;6.70;;;15.60;99.90;;;;;;4965231;28;20580;-73
2023/10/02 07:47:10;;;;;;;12.03;5.80;;;15.70;99.90;;;;;;4980573;28;20291;-74
2023/10/02 07:49:48;;;;;;;10.50;6.10;;;15.80;99.90;;;;;;4965703;28;21103;-74
2023/10/02 07:52:26;;;;;;;10.03;5.77;;;16.00;99.90;;;;;;4967356;28;20465;-73
2023/10/02 07:54:58;;;;;;;13.10;7.43;;;16.10;99.90;;;;;;4966139;28;20535;-74
2023/10/02 07:57:30;;;;;;;12.27;7.23;;;16.20;99.90;;;;;;4966178;28;20512;-73
2023/10/02 07:59:57;;;;;;;12.87;6.90;;;16.30;99.90;;;;;;4965930;28;20518;-73
2023/10/02 08:02:23;;;;;;;12.83;6.37;;;16.40;99.90;;;;;;4963091;28;20497;-74
2023/10/02 08:04:52;;;;;;;12.33;6.57;;;16.40;99.90;;;;;;4963319;28;20475;-75
2023/10/02 08:07:19;;;;;;;10.10;6.10;;;16.40;99.90;;;;;;4963711;28;20465;-75
2023/10/02 08:09:48;;;;;;;11.67;6.30;;;16.50;99.90;;;;;;4967026;28;20464;-74
2023/10/02 08:12:29;;;;;;;13.87;6.70;;;16.60;99.90;;;;;;4966047;28;20477;-73
2023/10/02 08:15:01;;;;;;;13.03;7.30;;;16.70;99.90;;;;;;4945874;28;20465;-75
2023/10/02 08:19:59;;;;;;;12.07;6.77;;;17.00;99.90;;;;;;4966157;28;20461;-74
2023/10/02 08:22:27;;;;;;;16.13;7.40;;;17.10;99.90;;;;;;4965564;28;20482;-74
2023/10/02 08:24:55;;;;;;;11.83;7.50;;;17.20;99.90;;;;;;4963894;28;20538;-76
2023/10/02 08:27:21;;;;;;;15.07;7.63;;;17.30;99.90;;;;;;4949586;28;20573;-74
2023/10/02 08:29:47;;;;;;;13.37;7.60;;;17.50;99.90;;;;;;4963465;28;20468;-75
2023/10/02 08:32:12;;;;;;;9.53;6.17;;;17.50;99.90;;;;;;4963982;28;20415;-74
2023/10/02 08:34:38;;;;;;;14.77;6.83;;;17.60;99.90;;;;;;4981087;28;20230;-75
2023/10/02 08:37:12;;;;;;;12.20;6.83;;;17.70;99.90;;;;;;4947718;28;20230;-75
2023/10/02 08:39:39;;;;;;;12.20;6.87;;;17.70;99.90;;;;;;4965595;28;20237;-74
2023/10/02 08:42:09;;;;;;;13.10;7.57;;;17.80;99.90;;;;;;4966624;28;20524;-75
2023/10/02 08:44:40;;;;;;;11.33;6.80;;;17.90;99.90;;;;;;4973751;28;20470;-74
2023/10/02 08:47:07;;;;;;;10.47;7.10;;;17.90;99.90;;;;;;4964400;28;20461;-77
2023/10/02 08:49:36;;;;;;;15.77;7.67;;;18.10;99.90;;;;;;4966460;28;20599;-75
2023/10/02 08:52:08;;;;;;;16.23;8.27;;;18.20;99.90;;;;;;4963775;28;20481;-73
2023/10/02 08:54:34;;;;;;;12.33;7.33;;;18.20;99.90;;;;;;4950173;28;20578;-74
2023/10/02 08:57:06;;;;;;;13.63;7.87;;;18.20;99.90;;;;;;4963384;28;20930;-75
2023/10/02 08:59:38;;;;;;;11.23;7.10;;;18.20;99.90;;;;;;4963378;28;20228;-75
2023/10/02 09:02:11;;;;;;;13.53;7.27;;;18.30;99.90;;;;;;4972962;28;20500;-73
2023/10/02 09:04:37;;;;;;;11.77;7.60;;;18.50;99.90;;;;;;4964173;28;20955;-74
2023/10/02 09:07:14;;;;;;;13.47;7.30;;;18.70;99.90;;;;;;4961218;28;20513;-75
2023/10/02 09:09:45;;;;;;;15.17;6.90;;;18.90;99.90;;;;;;4964790;28;21552;-75
2023/10/02 09:12:15;;;;;;;12.47;6.83;;;19.10;99.90;;;;;;4963299;28;20479;-76
2023/10/02 09:14:41;;;;;;;11.07;6.27;;;19.20;99.90;;;;;;4964955;28;20483;-74
2023/10/02 09:17:20;;;;;;;10.63;6.57;;;19.20;99.90;;;;;;4945661;28;21887;-73
2023/10/02 09:19:53;;;;;;;10.93;6.43;;;19.20;99.90;;;;;;4963599;28;20462;-74
2023/10/02 09:22:23;;;;;;;10.57;6.70;;;19.30;99.90;;;;;;4964727;28;20475;-74
2023/10/02 09:24:57;;;;;;;11.20;7.77;;;19.50;99.90;;;;;;4955497;28;20473;-75
2023/10/02 09:27:27;;;;;;;12.60;7.90;;;19.70;99.90;;;;;;4963097;28;20508;-73
2023/10/02 09:30:21;;;;;;;10.60;6.93;;;19.70;99.90;;;;;;4967261;28;20547;-75
2023/10/02 09:32:51;;;;;;;10.03;6.40;;;19.80;99.90;;;;;;4961793;28;20477;-74
2023/10/02 09:35:29;;;;;;;10.30;7.37;;;20.10;99.90;;;;;;4965290;28;20535;-75
2023/10/02 09:38:22;;;;;;;12.60;7.10;;;20.40;99.90;;;;;;4960702;28;20468;-75
2023/10/02 09:40:54;;;;;;;11.03;7.20;;;20.50;99.90;;;;;;4963764;28;20473;-75
2023/10/02 09:43:24;;;;;;;12.47;7.50;;;20.50;99.90;;;;;;4961877;28;20536;-74
2023/10/02 09:45:55;;;;;;;11.40;7.07;;;20.70;99.90;;;;;;4962593;28;20543;-76
2023/10/02 09:51:29;;;;;;;12.33;7.53;;;20.90;99.90;;;;;;4970497;28;20564;-75
2023/10/02 09:54:17;;;;;;;10.30;6.67;;;21.20;99.90;;;;;;4961721;28;20461;-75
2023/10/02 09:57:13;;;;;;;12.23;6.87;;;21.20;99.90;;;;;;4962299;28;20480;-75
2023/10/02 09:59:47;;;;;;;10.03;6.77;;;21.50;99.90;;;;;;4971003;28;20477;-75
2023/10/02 10:05:22;;;;;;;;;;;;;;;;;;;;;
2023/10/02 10:08:18;;;;;;;;;;;;;;;;;;;;;
2023/10/02 10:10:28;;;;;;;9.83;7.00;;;21.90;99.90;;;;;;4964057;28;20479;-75
2023/10/02 10:13:09;;;;;;;13.80;7.30;;;21.80;99.90;;;;;;4960508;28;20492;-75
2023/10/02 10:15:37;;;;;;;9.67;6.53;;;22.00;99.90;;;;;;4962566;28;20472;-75
2023/10/02 10:18:12;;;;;;;10.20;6.47;;;21.90;99.90;;;;;;4962267;28;20585;-75
2023/10/02 10:20:38;;;;;;;11.57;7.50;;;22.20;99.90;;;;;;4962283;28;20507;-76
2023/10/02 10:23:31;;;;;;;10.10;7.50;;;22.30;99.90;;;;;;4971039;28;20596;-75
2023/10/02 10:26:08;;;;;;;13.30;7.30;;;22.50;99.90;;;;;;4959911;28;20964;-74
2023/10/02 10:28:50;;;;;;;12.10;7.43;;;22.60;99.90;;;;;;4961304;28;20503;-75
2023/10/02 10:31:27;;;;;;;14.30;8.00;;;22.80;99.90;;;;;;4963027;28;20475;-75
2023/10/02 10:33:56;;;;;;;13.30;7.03;;;22.70;99.90;;;;;;4948166;28;20476;-77
2023/10/02 10:36:39;;;;;;;12.10;6.90;;;22.60;99.90;;;;;;4959555;28;20473;-75
2023/10/02 10:39:31;;;;;;;13.87;7.07;;;22.80;99.90;;;;;;4945187;28;20472;-74
2023/10/02 10:42:03;;;;;;;9.83;6.60;;;23.00;99.90;;;;;;4946276;28;20464;-75
2023/10/02 10:44:35;;;;;;;10.07;6.70;;;23.30;99.90;;;;;;4963699;28;20587;-75
2023/10/02 10:47:03;;;;;;;15.93;7.70;;;23.60;99.90;;;;;;4955071;28;20473;-75
2023/10/02 10:49:52;;;;;;;10.40;7.30;;;23.60;99.90;;;;;;4960441;28;20472;-75
2023/10/02 10:52:35;;;;;;;14.20;7.27;;;23.50;99.90;;;;;;4962216;28;20465;-76
2023/10/02 10:55:04;;;;;;;11.50;7.77;;;23.50;99.90;;;;;;4945718;28;20455;-76
2023/10/02 10:57:51;;;;;;;10.00;6.77;;;23.50;99.90;;;;;;4962806;28;20767;-76
2023/10/02 11:00:35;;;;;;;16.60;6.83;;;23.70;99.90;;;;;;4966484;28;21076;-76
2023/10/02 11:03:08;;;;;;;12.40;7.33;;;23.60;99.90;;;;;;4966888;28;21404;-76
2023/10/02 11:05:37;;;;;;;9.30;6.77;;;23.70;99.90;;;;;;4947369;28;20461;-75
2023/10/02 11:08:28;;;;;;;11.10;6.97;;;24.10;99.90;;;;;;4963767;28;20480;-76
2023/10/02 11:11:06;;;;;;;11.33;7.10;;;24.50;99.90;;;;;;4965773;28;20487;-75
2023/10/02 11:13:50;;;;;;;12.80;7.87;;;24.50;99.90;;;;;;4959092;28;20479;-76
2023/10/02 11:16:22;;;;;;;13.03;7.07;;;24.40;99.90;;;;;;4963810;28;20467;-74
2023/10/02 11:19:21;;;;;;;16.07;7.90;;;24.30;99.90;;;;;;4959034;28;21942;-76
2023/10/02 11:22:15;;;;;;;9.67;6.87;;;24.30;99.90;;;;;;4965544;28;20457;-75
2023/10/02 11:24:45;;;;;;;9.47;7.10;;;24.30;99.90;;;;;;4963830;28;22094;-75
2023/10/02 11:27:15;;;;;;;12.77;7.70;;;24.50;99.90;;;;;;4964594;28;20569;-76
2023/10/02 11:29:42;;;;;;;9.40;6.90;;;24.70;99.90;;;;;;4975683;28;21087;-76
2023/10/02 11:32:24;;;;;;;12.73;7.33;;;24.80;99.90;;;;;;4964921;28;20468;-75
2023/10/02 11:34:59;;;;;;;13.93;7.83;;;24.80;99.90;;;;;;4963633;28;20459;-74
2023/10/02 11:37:26;;;;;;;12.47;7.87;;;24.50;99.90;;;;;;4966104;28;21462;-76
2023/10/02 11:39:55;;;;;;;11.30;7.43;;;24.60;99.90;;;;;;4964236;28;20519;-76
2023/10/02 11:42:22;;;;;;;11.00;6.23;;;24.60;99.90;;;;;;4966058;28;20578;-76
2023/10/02 11:44:48;;;;;;;12.00;8.30;;;24.60;99.90;;;;;;4945839;28;20460;-74
2023/10/02 11:47:14;;;;;;;12.80;6.93;;;24.60;99.90;;;;;;4966647;28;20511;-75
2023/10/02 11:49:42;;;;;;;11.90;6.90;;;24.80;99.90;;;;;;4963202;28;20303;-76
2023/10/02 11:52:07;;;;;;;10.17;6.87;;;24.70;99.90;;;;;;4964821;28;20519;-75
2023/10/02 11:54:36;;;;;;;15.73;7.87;;;24.80;99.90;;;;;;4963522;28;20478;-76
2023/10/02 11:57:20;;;;;;;15.17;7.87;;;24.90;99.90;;;;;;4972273;28;20302;-76
2023/10/02 11:59:47;;;;;;;9.67;6.60;;;25.00;99.90;;;;;;4981303;28;20456;-75
2023/10/02 12:02:17;;;;;;;11.70;7.37;;;25.20;99.90;;;;;;4950392;28;20495;-74
2023/10/02 12:04:44;;;;;;;12.17;8.10;;;25.20;99.90;;;;;;4963595;28;20464;-75
2023/10/02 12:07:16;;;;;;;11.10;6.97;;;25.20;99.90;;;;;;4961427;28;20550;-76
2023/10/02 12:09:43;;;;;;;13.30;7.70;;;25.20;99.90;;;;;;4963750;28;20468;-76
2023/10/02 12:12:11;;;;;;;13.83;8.10;;;25.20;99.90;;;;;;4965609;28;20473;-77
2023/10/02 12:14:39;;;;;;;11.00;7.10;;;25.20;99.90;;;;;;4965204;28;21020;-76
2023/10/02 12:17:06;;;;;;;10.13;6.20;;;25.30;99.90;;;;;;4964922;28;20487;-75
2023/10/02 12:19:40;;;;;;;14.63;7.70;;;25.50;99.90;;;;;;4975558;28;21085;-76
2023/10/02 12:22:06;;;;;;;12.47;7.27;;;25.90;99.90;;;;;;4968935;28;22093;-77
2023/10/02 12:24:36;;;;;;;11.00;6.50;;;25.80;99.90;;;;;;4964965;28;20457;-75
2023/10/02 12:27:02;;;;;;;9.80;7.00;;;25.70;99.90;;;;;;4976193;28;20464;-76
2023/10/02 12:29:29;;;;;;;14.33;7.60;;;25.80;99.90;;;;;;4966042;28;20465;-75
2023/10/02 12:31:58;;;;;;;14.60;7.80;;;26.00;99.90;;;;;;4948207;28;20686;-76
2023/10/02 12:34:25;;;;;;;12.70;8.10;;;26.00;99.90;;;;;;4966169;28;20461;-77
2023/10/02 12:36:52;;;;;;;17.60;7.80;;;26.00;99.90;;;;;;4964904;28;20573;-75
2023/10/02 12:39:17;;;;;;;13.77;7.70;;;26.50;99.90;;;;;;4966715;28;20875;-76
2023/10/02 12:41:44;;;;;;;12.53;8.57;;;26.50;99.90;;;;;;4982304;28;20464;-77
2023/10/02 12:44:10;;;;;;;13.33;7.43;;;26.40;99.90;;;;;;4971014;28;21164;-76
2023/10/02 12:46:43;;;;;;;10.40;7.20;;;26.10;99.90;;;;;;4962477;28;20601;-75
2023/10/02 12:49:15;;;;;;;13.03;7.83;;;25.90;99.90;;;;;;4962722;28;20470;-76
2023/10/02 12:51:41;;;;;;;12.60;7.10;;;26.00;99.90;;;;;;4964621;28;21049;-77
2023/10/02 12:54:07;;;;;;;12.37;7.20;;;26.00;99.90;;;;;;4947280;28;21467;-76
2023/10/02 12:56:33;;;;;;;10.20;6.77;;;26.30;99.90;;;;;;4961634;28;20709;-76
2023/10/02 12:58:59;;;;;;;11.20;8.20;;;26.50;99.90;;;;;;4972743;28;22086;-75
2023/10/02 13:01:27;;;;;;;11.50;7.53;;;26.60;99.90;;;;;;4965612;28;20640;-75
2023/10/02 13:03:59;;;;;;;12.13;8.87;;;26.80;99.90;;;;;;4963492;28;20225;-77
2023/10/02 13:06:27;;;;;;;11.27;7.47;;;26.80;99.90;;;;;;4963797;28;20475;-76
2023/10/02 13:11:39;;;;;;;11.93;8.20;;;26.70;99.90;;;;;;4972628;28;20547;-76
2023/10/02 13:14:08;;;;;;;11.63;7.50;;;26.90;99.90;;;;;;4962474;28;20479;-76
2023/10/02 13:16:38;;;;;;;12.50;7.97;;;26.60;99.90;;;;;;4961373;28;20272;-76
2023/10/02 13:19:09;;;;;;;10.40;7.13;;;26.30;99.90;;;;;;4961599;28;20468;-76
2023/10/02 13:21:36;;;;;;;10.17;7.30;;;26.10;99.90;;;;;;4964795;28;20990;-76
2023/10/02 13:24:04;;;;;;;17.43;7.60;;;26.20;99.90;;;;;;4963127;28;20536;-77
2023/10/02 13:26:29;;;;;;;10.83;7.63;;;26.30;99.90;;;;;;4962633;28;20481;-75
2023/10/02 13:28:55;;;;;;;14.33;8.23;;;26.30;99.90;;;;;;4964037;28;20457;-76
2023/10/02 13:31:22;;;;;;;11.90;7.20;;;26.60;99.90;;;;;;4959953;28;20233;-75
2023/10/02 13:33:52;;;;;;;10.53;6.93;;;26.90;99.90;;;;;;4961144;28;22008;-76
2023/10/02 13:36:22;;;;;;;10.50;8.00;;;27.20;99.90;;;;;;4962894;28;20502;-77
2023/10/02 13:38:56;;;;;;;9.47;6.93;;;26.80;99.90;;;;;;4962707;28;20461;-77
2023/10/02 13:41:22;;;;;;;11.70;7.20;;;26.80;99.90;;;;;;4963760;28;20502;-75
2023/10/02 13:43:53;;;;;;;10.93;7.90;;;26.90;99.90;;;;;;4962156;28;20464;-77
2023/10/02 13:46:22;;;;;;;14.93;7.87;;;27.20;99.90;;;;;;4959480;28;20468;-75
2023/10/02 13:48:52;;;;;;;11.67;7.53;;;27.30;99.90;;;;;;4961212;28;20469;-76